CheckWX is a tool to help pilots better visualize weather data.  It is not intended as a substitute for an official pre-flight weather briefing.

20:38:15 UTC

FOON METAR
M'Vengue El Hadj Omar Bongo Ondimba International Airport
Franceville, Gabon
Current

3 hours ago

FOON 221800Z 16004KT 9999 TS SCT016 FEW020CB 27/25 Q1008
Observed
Mar-22 @ 18:00 UTC
Wind
  • 160° at 4 KTS
Visibility
10,000+ meters
Flight Rules
VFR
Conditions
Thunderstorm
Cloud Levels
  • Scattered at 1,600' AGL
  • Few at 2,000' AGL
Temperature
27°C / 81°F
Dewpoint
25°C / 77°F
Humidity
89%
Altimeter
29.76" Hg
Pressure
1007.92 hPa
Previous

4 hours ago

FOON 221700Z VRB02KT 9999 SCT026 29/25 Q1006
Observed
Mar-22 @ 17:00 UTC
Wind
  • Variable at 2 KTS
Visibility
10,000+ meters
Flight Rules
VFR
Cloud Levels
  • Scattered at 2,600' AGL
Temperature
29°C / 84°F
Dewpoint
25°C / 77°F
Humidity
79%
Altimeter
29.7" Hg
Pressure
1005.92 hPa
Previous

5 hours ago

FOON 221600Z 30004KT 270V340 CAVOK 30/25 Q1007
Observed
Mar-22 @ 16:00 UTC
Wind
  • 300° at 4 KTS
Visibility
10,000+ meters
Flight Rules
VFR
Cloud Levels
  • Clear skies
Temperature
30°C / 86°F
Dewpoint
25°C / 77°F
Humidity
75%
Altimeter
29.73" Hg
Pressure
1006.92 hPa